createdAt,value
2018-12-17T00:01:55.384Z,88.44
2018-12-17T00:04:22.821Z,88.27
2018-12-17T00:06:50.289Z,88.46
2018-12-17T00:09:17.841Z,88.46
2018-12-17T00:11:45.387Z,88.26
2018-12-17T00:14:12.862Z,88.29
2018-12-17T00:16:40.274Z,88.18
2018-12-17T00:19:07.784Z,88.04
2018-12-17T00:21:35.205Z,88.24
2018-12-17T00:24:02.703Z,88.25
2018-12-17T00:26:30.255Z,88.57
2018-12-17T00:28:57.715Z,88.11
2018-12-17T00:31:25.256Z,88.32
2018-12-17T00:33:52.750Z,88.19
2018-12-17T00:36:20.186Z,87.79
2018-12-17T00:38:47.654Z,88.16
2018-12-17T00:41:15.097Z,88.23
2018-12-17T00:43:42.523Z,88.31
2018-12-17T00:46:10.119Z,88.66
2018-12-17T00:48:37.616Z,88.05
2018-12-17T00:51:05.023Z,88.53
2018-12-17T00:53:32.476Z,87.92
2018-12-17T00:55:59.905Z,88.12
2018-12-17T00:58:27.337Z,88.12
2018-12-17T01:00:54.763Z,87.82
2018-12-17T01:03:22.233Z,88.00
2018-12-17T01:05:49.661Z,88.15
2018-12-17T01:08:17.109Z,87.98
2018-12-17T01:10:44.559Z,88.22
2018-12-17T01:13:11.973Z,87.63
2018-12-17T01:15:39.405Z,87.70
2018-12-17T01:18:06.845Z,88.21
2018-12-17T01:20:34.323Z,88.32
2018-12-17T01:23:01.742Z,87.83
2018-12-17T01:25:29.212Z,88.03
2018-12-17T01:27:56.655Z,88.00
2018-12-17T01:30:24.128Z,88.09
2018-12-17T01:32:51.558Z,88.01
2018-12-17T01:35:19.167Z,87.84
2018-12-17T01:37:46.701Z,87.69
2018-12-17T01:40:14.164Z,88.03
2018-12-17T01:42:41.600Z,87.68
2018-12-17T01:45:09.188Z,87.63
2018-12-17T01:47:36.655Z,87.90
2018-12-17T01:50:04.990Z,87.67
2018-12-17T01:55:13.664Z,87.72
2018-12-17T01:57:41.123Z,87.45
2018-12-17T02:00:08.683Z,86.98
2018-12-17T02:02:36.123Z,86.80
2018-12-17T02:05:03.785Z,87.21
2018-12-17T02:07:31.256Z,87.30
2018-12-17T02:09:58.684Z,87.18
2018-12-17T02:12:26.157Z,87.30
2018-12-17T02:14:53.592Z,87.26
2018-12-17T02:17:21.132Z,87.38
2018-12-17T02:19:48.565Z,87.62
2018-12-17T02:22:15.993Z,87.50
2018-12-17T02:24:43.429Z,87.67
2018-12-17T02:27:10.849Z,87.92
2018-12-17T02:29:38.362Z,88.27
2018-12-17T02:32:05.811Z,89.04
2018-12-17T02:34:33.386Z,88.72
2018-12-17T02:37:00.874Z,88.09
2018-12-17T02:39:28.442Z,88.48
2018-12-17T02:41:55.869Z,88.72
2018-12-17T02:44:23.465Z,88.22
2018-12-17T02:46:51.032Z,88.32
2018-12-17T02:49:18.627Z,88.13
2018-12-17T02:51:46.042Z,87.80
2018-12-17T02:54:13.475Z,88.05
2018-12-17T02:56:40.897Z,88.29
2018-12-17T02:59:08.327Z,88.15
2018-12-17T03:01:35.832Z,88.04
2018-12-17T03:04:03.261Z,87.99
2018-12-17T03:06:30.696Z,88.21
2018-12-17T03:08:58.218Z,87.77
2018-12-17T03:11:25.696Z,87.92
2018-12-17T03:13:53.143Z,88.27
2018-12-17T03:16:20.564Z,88.18
2018-12-17T03:18:47.998Z,87.90
2018-12-17T03:21:15.460Z,87.52
2018-12-17T03:23:42.931Z,87.85
2018-12-17T03:26:10.994Z,87.81
2018-12-17T03:28:38.767Z,87.97
2018-12-17T03:31:06.224Z,88.18
2018-12-17T03:33:33.636Z,88.22
2018-12-17T03:36:01.236Z,88.27
2018-12-17T03:38:28.697Z,88.45
2018-12-17T03:40:56.165Z,88.07
2018-12-17T03:43:23.611Z,88.25
2018-12-17T03:45:51.033Z,88.40
2018-12-17T03:49:39.014Z,88.75
2018-12-17T03:52:06.484Z,88.92
2018-12-17T03:54:33.915Z,88.49
2018-12-17T03:57:01.381Z,88.45
2018-12-17T03:59:28.791Z,88.50
2018-12-17T04:01:56.222Z,88.03
2018-12-17T04:04:23.751Z,88.46
2018-12-17T04:06:51.208Z,89.09
2018-12-17T04:09:18.625Z,88.65
2018-12-17T04:11:46.079Z,88.91
2018-12-17T04:14:13.511Z,89.28
2018-12-17T04:16:40.944Z,88.80
2018-12-17T04:19:08.395Z,88.60
2018-12-17T04:21:35.854Z,88.85
2018-12-17T04:24:03.263Z,88.74
2018-12-17T04:26:30.765Z,88.56
2018-12-17T04:28:58.191Z,88.52
2018-12-17T04:31:25.642Z,88.55
2018-12-17T04:33:53.125Z,88.54
2018-12-17T04:36:20.577Z,88.63
2018-12-17T04:38:47.992Z,88.99
2018-12-17T04:41:15.578Z,88.69
2018-12-17T04:43:43.082Z,88.90
2018-12-17T04:46:10.618Z,88.62
2018-12-17T04:48:38.067Z,88.72
2018-12-17T04:51:06.761Z,88.60
2018-12-17T04:53:34.208Z,89.37
2018-12-17T04:56:01.665Z,89.35
2018-12-17T04:58:29.134Z,89.15
2018-12-17T05:00:56.586Z,89.05
2018-12-17T05:03:24.055Z,89.69
2018-12-17T05:05:51.505Z,89.30
2018-12-17T05:08:18.913Z,89.28
2018-12-17T05:10:46.432Z,89.32
2018-12-17T05:13:13.961Z,88.93
2018-12-17T05:15:41.425Z,89.21
2018-12-17T05:18:08.881Z,89.05
2018-12-17T05:20:36.357Z,89.09
2018-12-17T05:23:03.795Z,89.00
2018-12-17T05:25:31.268Z,89.24
2018-12-17T05:27:58.705Z,89.07
2018-12-17T05:30:26.240Z,88.88
2018-12-17T05:32:53.744Z,89.17
2018-12-17T05:35:21.197Z,89.50
2018-12-17T05:37:48.670Z,88.96
2018-12-17T05:40:16.101Z,88.85
2018-12-17T05:42:43.557Z,89.12
2018-12-17T05:45:10.982Z,88.98
2018-12-17T05:47:38.423Z,89.01
2018-12-17T05:50:06.157Z,88.70
2018-12-17T05:52:33.693Z,88.77
2018-12-17T05:55:01.169Z,89.06
2018-12-17T05:57:28.617Z,89.46
2018-12-17T05:59:56.061Z,89.45
2018-12-17T06:02:23.547Z,89.21
2018-12-17T06:04:51.031Z,89.60
2018-12-17T06:07:18.552Z,89.17
2018-12-17T06:09:45.983Z,88.88
2018-12-17T06:12:13.459Z,89.34
2018-12-17T06:14:40.910Z,88.67
2018-12-17T06:17:08.321Z,89.42
2018-12-17T06:19:35.748Z,88.87
2018-12-17T06:22:03.194Z,89.43
2018-12-17T06:24:30.692Z,89.36
2018-12-17T06:26:58.165Z,89.23
2018-12-17T06:29:25.671Z,89.18
2018-12-17T06:31:53.177Z,89.53
2018-12-17T06:34:20.650Z,89.36
2018-12-17T06:36:48.053Z,89.77
2018-12-17T06:39:15.577Z,90.08
2018-12-17T06:41:43.004Z,90.23
2018-12-17T06:44:10.695Z,90.19
2018-12-17T06:46:38.169Z,90.60
2018-12-17T06:49:05.615Z,89.93
2018-12-17T06:51:33.517Z,89.99
2018-12-17T06:54:01.033Z,89.91
2018-12-17T06:56:28.501Z,89.87
2018-12-17T06:58:55.963Z,90.01
2018-12-17T07:01:23.422Z,89.62
2018-12-17T07:03:50.869Z,90.03
2018-12-17T07:06:18.522Z,89.85
2018-12-17T07:08:45.971Z,89.91
2018-12-17T07:11:13.391Z,90.35
2018-12-17T07:13:40.897Z,90.29
2018-12-17T07:16:08.377Z,90.83
2018-12-17T07:18:35.860Z,90.81
2018-12-17T07:21:03.272Z,90.55
2018-12-17T07:23:30.731Z,91.02
2018-12-17T07:25:58.181Z,91.02
2018-12-17T07:28:25.652Z,91.01
2018-12-17T07:30:53.221Z,91.43
2018-12-17T07:33:20.640Z,91.44
2018-12-17T07:35:48.077Z,91.30
2018-12-17T07:38:15.568Z,91.50
2018-12-17T07:40:43.000Z,91.43
2018-12-17T07:43:10.709Z,91.97
2018-12-17T07:45:38.159Z,91.85
2018-12-17T07:48:05.801Z,91.91
2018-12-17T07:50:33.235Z,92.22
2018-12-17T07:53:00.654Z,92.58
2018-12-17T07:55:28.079Z,92.17
2018-12-17T07:57:55.492Z,92.19
2018-12-17T08:00:22.992Z,92.41
2018-12-17T08:02:50.463Z,92.25
2018-12-17T08:05:17.920Z,92.30
2018-12-17T08:07:45.381Z,92.46
2018-12-17T08:10:12.821Z,92.08
2018-12-17T08:12:40.245Z,92.37
2018-12-17T08:15:07.758Z,92.15
2018-12-17T08:17:35.201Z,92.27
2018-12-17T08:20:02.731Z,92.92
2018-12-17T08:22:30.404Z,92.76
2018-12-17T08:24:57.826Z,92.78
2018-12-17T08:27:25.260Z,93.01
2018-12-17T08:29:52.696Z,92.49
2018-12-17T08:32:20.268Z,92.68
2018-12-17T08:34:47.713Z,93.13
2018-12-17T08:37:15.145Z,93.03
2018-12-17T08:39:42.628Z,93.18
2018-12-17T08:42:10.072Z,92.86
2018-12-17T08:44:37.512Z,93.35
2018-12-17T08:47:04.954Z,93.02
2018-12-17T08:49:32.433Z,93.41
2018-12-17T08:52:00.172Z,92.93
2018-12-17T08:54:27.657Z,92.80
2018-12-17T08:56:55.131Z,92.60
2018-12-17T08:59:22.589Z,92.65
2018-12-17T09:01:50.133Z,92.69
2018-12-17T09:04:17.541Z,93.11
2018-12-17T09:06:44.964Z,93.15
2018-12-17T09:09:12.515Z,93.08
2018-12-17T09:11:39.951Z,93.39
2018-12-17T09:14:07.425Z,93.19
2018-12-17T09:16:34.864Z,93.22
2018-12-17T09:19:02.344Z,93.30
2018-12-17T09:21:29.799Z,93.63
2018-12-17T09:23:57.229Z,93.55
2018-12-17T09:26:24.716Z,93.19
2018-12-17T09:28:52.163Z,93.42
2018-12-17T09:31:19.622Z,93.54
2018-12-17T09:33:47.076Z,94.14
2018-12-17T09:36:14.509Z,93.62
2018-12-17T09:38:41.986Z,94.17
2018-12-17T09:41:09.461Z,94.00
2018-12-17T09:43:36.899Z,93.97
2018-12-17T09:46:04.377Z,93.93
2018-12-17T09:48:31.799Z,93.96
2018-12-17T09:50:59.296Z,93.43
2018-12-17T09:53:26.733Z,94.52
2018-12-17T09:55:54.187Z,93.92
2018-12-17T09:58:21.632Z,93.65
2018-12-17T10:00:49.124Z,93.53
2018-12-17T10:03:16.548Z,93.75
2018-12-17T10:05:43.969Z,93.96
2018-12-17T10:08:11.496Z,93.68
2018-12-17T10:10:38.920Z,94.15
2018-12-17T10:13:06.403Z,93.68
2018-12-17T10:15:33.833Z,93.66
2018-12-17T10:18:01.416Z,94.33
2018-12-17T10:20:28.826Z,93.85
2018-12-17T10:22:56.328Z,93.91
2018-12-17T10:25:23.769Z,93.86
2018-12-17T10:27:51.205Z,94.17
2018-12-17T10:30:18.700Z,93.99
2018-12-17T10:32:46.117Z,94.17
2018-12-17T10:35:13.622Z,94.30
2018-12-17T10:37:41.026Z,94.18
2018-12-17T10:40:09.150Z,94.45
2018-12-17T10:42:36.575Z,93.76
2018-12-17T10:45:05.176Z,93.94
2018-12-17T10:47:32.599Z,93.61
2018-12-17T10:50:00.093Z,93.89
2018-12-17T10:52:27.519Z,93.82
2018-12-17T10:54:55.000Z,93.60
2018-12-17T10:57:22.448Z,93.25
2018-12-17T10:59:49.912Z,93.04
2018-12-17T11:02:19.345Z,93.03
2018-12-17T11:04:48.709Z,92.89
2018-12-17T11:07:16.187Z,92.79
2018-12-17T11:09:43.613Z,92.68
2018-12-17T11:12:11.018Z,92.93
2018-12-17T11:14:38.445Z,92.87
2018-12-17T11:17:05.917Z,92.78
2018-12-17T11:19:33.557Z,92.63
2018-12-17T11:22:01.018Z,92.86
2018-12-17T11:24:28.492Z,92.73
2018-12-17T11:26:55.965Z,93.14
2018-12-17T11:29:23.383Z,92.42
2018-12-17T11:31:50.833Z,93.17
2018-12-17T11:34:18.318Z,94.11
2018-12-17T11:36:45.757Z,93.03
2018-12-17T11:39:13.225Z,94.38
2018-12-17T11:41:40.656Z,93.80
2018-12-17T11:44:08.153Z,93.20
2018-12-17T11:46:35.590Z,93.67
2018-12-17T11:49:02.997Z,93.90
2018-12-17T11:51:30.448Z,93.56
2018-12-17T11:53:57.965Z,94.31
2018-12-17T11:56:29.320Z,93.43
2018-12-17T11:58:56.777Z,94.47
2018-12-17T12:01:24.233Z,94.31
2018-12-17T12:03:51.708Z,94.00
2018-12-17T12:06:19.139Z,94.21
2018-12-17T12:08:46.607Z,94.00
2018-12-17T12:11:14.046Z,93.75
2018-12-17T12:13:41.513Z,93.88
2018-12-17T12:16:09.064Z,93.66
2018-12-17T12:18:36.564Z,94.77
2018-12-17T12:21:04.103Z,93.99
2018-12-17T12:23:31.549Z,94.19
2018-12-17T12:25:59.023Z,94.09
2018-12-17T12:28:26.557Z,94.41
2018-12-17T12:31:00.333Z,93.85
2018-12-17T12:33:23.534Z,93.89
2018-12-17T12:35:50.997Z,93.81
2018-12-17T12:38:18.465Z,93.90
2018-12-17T12:40:45.886Z,93.94
2018-12-17T12:43:13.348Z,94.56
2018-12-17T12:45:40.805Z,93.97
2018-12-17T12:48:08.278Z,94.03
2018-12-17T12:50:35.732Z,93.84
2018-12-17T12:53:03.171Z,94.15
2018-12-17T12:55:30.756Z,93.78
2018-12-17T12:58:03.646Z,93.78
2018-12-17T13:00:27.837Z,94.17
2018-12-17T13:02:55.262Z,93.29
2018-12-17T13:05:22.721Z,93.49
2018-12-17T13:07:50.180Z,93.46
2018-12-17T13:10:17.752Z,93.31
2018-12-17T13:12:45.231Z,93.33
2018-12-17T13:15:12.746Z,92.68
2018-12-17T13:17:40.177Z,93.14
2018-12-17T13:20:07.660Z,93.18
2018-12-17T13:22:35.138Z,93.40
2018-12-17T13:25:02.618Z,93.13
2018-12-17T13:27:30.144Z,93.77
2018-12-17T13:29:57.612Z,93.59
2018-12-17T13:32:25.021Z,93.46
2018-12-17T13:34:52.505Z,93.12
2018-12-17T13:37:19.939Z,94.01
2018-12-17T13:39:47.417Z,94.11
2018-12-17T13:42:14.891Z,93.79
2018-12-17T13:44:42.305Z,94.45
2018-12-17T13:47:09.808Z,94.01
2018-12-17T13:49:37.265Z,94.56
2018-12-17T13:52:10.520Z,94.61
2018-12-17T13:54:38.018Z,94.34
2018-12-17T13:57:05.568Z,94.63
2018-12-17T13:59:32.995Z,94.44
2018-12-17T14:02:00.409Z,94.70
2018-12-17T14:04:27.837Z,94.26
2018-12-17T14:06:55.354Z,94.80
2018-12-17T14:09:22.801Z,94.34
2018-12-17T14:11:50.256Z,94.23
2018-12-17T14:14:17.776Z,94.38
2018-12-17T14:16:50.727Z,94.49
2018-12-17T14:19:20.094Z,94.44
2018-12-17T14:21:57.364Z,94.70
2018-12-17T14:24:24.838Z,94.66
2018-12-17T14:26:52.328Z,93.99
2018-12-17T14:29:19.737Z,94.45
2018-12-17T14:31:47.381Z,94.72
2018-12-17T14:34:14.834Z,94.25
2018-12-17T14:36:42.255Z,94.91
2018-12-17T14:39:10.040Z,94.47
2018-12-17T14:41:37.493Z,94.63
2018-12-17T14:44:10.613Z,94.87
2018-12-17T14:46:43.700Z,94.22
2018-12-17T14:49:11.236Z,94.72
2018-12-17T14:51:38.721Z,94.89
2018-12-17T14:54:06.149Z,94.88
2018-12-17T14:56:33.609Z,94.82
2018-12-17T14:59:01.087Z,94.34
2018-12-17T15:01:28.555Z,94.97
2018-12-17T15:03:56.051Z,94.85
2018-12-17T15:06:23.541Z,95.08
2018-12-17T15:08:51.010Z,94.60
2018-12-17T15:11:18.477Z,94.89
2018-12-17T15:13:46.017Z,94.70
2018-12-17T15:16:13.478Z,94.88
2018-12-17T15:18:40.924Z,94.88
2018-12-17T15:21:08.400Z,95.37
2018-12-17T15:23:35.858Z,94.65
2018-12-17T15:26:03.378Z,95.37
2018-12-17T15:28:30.996Z,95.39
2018-12-17T15:30:58.531Z,95.26
2018-12-17T15:33:25.955Z,95.57
2018-12-17T15:35:53.437Z,95.52
2018-12-17T15:38:20.908Z,95.65
2018-12-17T15:40:48.331Z,95.65
2018-12-17T15:43:15.773Z,95.19
2018-12-17T15:45:43.197Z,95.27
2018-12-17T15:48:10.728Z,95.75
2018-12-17T15:50:38.148Z,96.00
2018-12-17T15:53:05.583Z,95.21
2018-12-17T15:55:33.009Z,96.10
2018-12-17T15:58:00.457Z,96.01
2018-12-17T16:00:27.920Z,95.83
2018-12-17T16:02:55.342Z,95.65
2018-12-17T16:05:22.834Z,95.69
2018-12-17T16:07:50.252Z,96.80
2018-12-17T16:10:17.738Z,95.36
2018-12-17T16:12:45.294Z,96.52
2018-12-17T16:15:12.721Z,95.99
2018-12-17T16:17:40.271Z,96.35
2018-12-17T16:20:07.740Z,96.21
2018-12-17T16:22:35.235Z,96.24
2018-12-17T16:25:02.920Z,96.20
2018-12-17T16:27:30.333Z,96.23
2018-12-17T16:29:57.814Z,96.67
2018-12-17T16:32:25.357Z,95.88
2018-12-17T16:34:52.831Z,96.18
2018-12-17T16:37:20.242Z,96.17
2018-12-17T16:39:47.728Z,95.84
2018-12-17T16:42:15.180Z,95.94
2018-12-17T16:44:42.659Z,96.64
2018-12-17T16:47:10.143Z,96.15
2018-12-17T16:49:37.765Z,96.09
2018-12-17T16:52:05.222Z,96.33
2018-12-17T16:54:32.695Z,95.97
2018-12-17T16:57:00.229Z,96.23
2018-12-17T16:59:27.693Z,96.31
2018-12-17T17:01:55.171Z,96.31
2018-12-17T17:04:22.586Z,96.29
2018-12-17T17:06:50.031Z,95.93
2018-12-17T17:09:17.540Z,96.57
2018-12-17T17:11:45.081Z,96.36
2018-12-17T17:14:12.653Z,96.16
2018-12-17T17:16:40.220Z,95.94
2018-12-17T17:19:07.649Z,96.39
2018-12-17T17:21:35.447Z,96.33
2018-12-17T17:24:02.878Z,95.79
2018-12-17T17:26:30.347Z,95.85
2018-12-17T17:28:57.815Z,96.02
2018-12-17T17:31:25.261Z,96.25
2018-12-17T17:33:52.749Z,95.52
2018-12-17T17:36:20.464Z,95.72
2018-12-17T17:38:47.900Z,95.32
2018-12-17T17:41:15.319Z,95.33
2018-12-17T17:43:42.882Z,95.84
2018-12-17T17:46:10.311Z,95.97
2018-12-17T17:48:37.742Z,95.40
2018-12-17T17:51:05.323Z,95.62
2018-12-17T17:53:32.765Z,95.26
2018-12-17T17:56:00.199Z,95.05
2018-12-17T17:58:27.805Z,94.96
2018-12-17T18:00:55.262Z,95.02
2018-12-17T18:03:22.701Z,95.53
2018-12-17T18:05:50.179Z,95.47
2018-12-17T18:08:17.624Z,94.99
2018-12-17T18:10:45.181Z,95.32
2018-12-17T18:13:12.625Z,95.09
2018-12-17T18:15:41.857Z,95.13
2018-12-17T18:18:09.636Z,95.21
2018-12-17T18:20:37.169Z,95.35
2018-12-17T18:23:04.593Z,95.00
2018-12-17T18:27:06.788Z,94.58
2018-12-17T18:29:34.329Z,95.10
2018-12-17T18:32:01.808Z,94.38
2018-12-17T18:34:29.260Z,94.37
2018-12-17T18:36:56.722Z,94.64
2018-12-17T18:39:24.511Z,94.55
2018-12-17T18:41:51.960Z,95.28
2018-12-17T18:44:19.370Z,95.37
2018-12-17T18:46:46.798Z,95.08
2018-12-17T18:49:14.239Z,95.36
2018-12-17T18:51:41.790Z,95.47
2018-12-17T18:54:09.229Z,94.92
2018-12-17T18:56:36.687Z,94.84
2018-12-17T18:59:04.101Z,94.65
2018-12-17T19:01:31.711Z,95.02
2018-12-17T19:03:59.133Z,95.28
2018-12-17T19:06:26.617Z,95.47
2018-12-17T19:08:54.087Z,95.31
2018-12-17T19:11:21.549Z,94.87
2018-12-17T19:13:49.104Z,94.37
2018-12-17T19:16:16.535Z,94.19
2018-12-17T19:18:43.970Z,94.48
2018-12-17T19:21:11.386Z,95.20
2018-12-17T19:23:38.928Z,94.82
2018-12-17T19:26:06.385Z,94.72
2018-12-17T19:28:33.814Z,95.06
2018-12-17T19:31:01.284Z,94.97
2018-12-17T19:33:28.756Z,94.38
2018-12-17T19:35:56.193Z,94.84
2018-12-17T19:38:23.636Z,94.10
2018-12-17T19:40:51.059Z,94.60
2018-12-17T19:43:18.581Z,94.12
2018-12-17T19:45:46.140Z,94.26
2018-12-17T19:48:13.583Z,94.29
2018-12-17T19:50:41.044Z,93.76
2018-12-17T19:53:08.478Z,94.56
2018-12-17T19:55:35.896Z,94.26
2018-12-17T19:58:03.429Z,94.43
2018-12-17T20:00:30.871Z,94.33
2018-12-17T20:02:58.299Z,93.97
2018-12-17T20:05:25.791Z,94.12
2018-12-17T20:07:53.225Z,93.71
2018-12-17T20:10:23.513Z,93.72
2018-12-17T20:12:50.948Z,94.06
2018-12-17T20:15:18.526Z,93.74
2018-12-17T20:17:45.967Z,94.00
2018-12-17T20:20:13.512Z,94.30
2018-12-17T20:22:40.947Z,93.72
2018-12-17T20:25:08.373Z,94.25
2018-12-17T20:27:35.890Z,93.85
2018-12-17T20:30:05.041Z,94.17
2018-12-17T20:32:32.462Z,94.18
2018-12-17T20:34:59.893Z,93.70
2018-12-17T20:37:27.333Z,93.32
2018-12-17T20:39:54.801Z,93.61
2018-12-17T20:42:22.244Z,93.26
2018-12-17T20:44:49.657Z,93.16
2018-12-17T20:47:17.099Z,92.98
2018-12-17T20:49:44.527Z,92.96
2018-12-17T20:52:11.949Z,92.91
2018-12-17T20:54:39.433Z,93.19
2018-12-17T20:57:06.918Z,92.99
2018-12-17T20:59:34.359Z,93.16
2018-12-17T21:02:01.808Z,92.95
2018-12-17T21:04:29.287Z,93.48
2018-12-17T21:06:56.720Z,93.49
2018-12-17T21:09:24.147Z,93.40
2018-12-17T21:11:52.642Z,93.03
2018-12-17T21:14:23.582Z,93.25
2018-12-17T21:16:49.785Z,93.16
2018-12-17T21:19:17.309Z,93.27
2018-12-17T21:21:44.736Z,92.85
2018-12-17T21:24:12.152Z,93.49
2018-12-17T21:26:39.587Z,93.23
2018-12-17T21:29:07.036Z,92.99
2018-12-17T21:31:34.449Z,93.41
2018-12-17T21:34:01.900Z,93.42
2018-12-17T21:36:29.306Z,92.98
2018-12-17T21:38:56.751Z,93.21
2018-12-17T21:41:24.189Z,93.01
2018-12-17T21:43:51.622Z,93.80
2018-12-17T21:46:19.109Z,93.39
2018-12-17T21:48:46.539Z,93.45
2018-12-17T21:51:14.033Z,93.63
2018-12-17T21:53:41.455Z,93.68
2018-12-17T21:56:08.934Z,93.94
2018-12-17T21:58:36.411Z,94.05
2018-12-17T22:01:03.837Z,93.79
2018-12-17T22:03:31.415Z,93.34
2018-12-17T22:05:58.887Z,93.11
2018-12-17T22:08:26.326Z,93.29
2018-12-17T22:10:53.777Z,93.13
2018-12-17T22:13:21.240Z,93.47
2018-12-17T22:15:48.793Z,93.74
2018-12-17T22:18:16.268Z,93.18
2018-12-17T22:20:43.703Z,93.69
2018-12-17T22:23:11.126Z,93.95
2018-12-17T22:25:38.557Z,93.70
2018-12-17T22:28:05.995Z,93.45
2018-12-17T22:30:33.421Z,93.57
2018-12-17T22:33:00.889Z,93.73
2018-12-17T22:35:28.358Z,93.50
2018-12-17T22:37:55.801Z,93.51
2018-12-17T22:40:23.229Z,93.77
2018-12-17T22:42:50.687Z,92.92
2018-12-17T22:45:18.169Z,93.16
2018-12-17T22:47:45.637Z,92.75
2018-12-17T22:50:13.105Z,92.99
2018-12-17T22:52:40.536Z,93.13
2018-12-17T22:55:08.124Z,92.46
2018-12-17T22:57:35.549Z,92.45
2018-12-17T23:00:03.338Z,93.02
2018-12-17T23:02:30.777Z,92.76
2018-12-17T23:04:58.190Z,93.00
2018-12-17T23:07:25.872Z,93.08
2018-12-17T23:10:05.354Z,92.90
2018-12-17T23:12:44.796Z,92.84
2018-12-17T23:15:24.351Z,93.22
2018-12-17T23:17:51.955Z,92.56
2018-12-17T23:20:19.537Z,92.71
2018-12-17T23:22:46.957Z,93.29
2018-12-17T23:25:14.390Z,93.43
2018-12-17T23:27:47.372Z,92.97
2018-12-17T23:30:14.920Z,92.78
2018-12-17T23:32:42.347Z,92.46
2018-12-17T23:35:09.764Z,92.97
2018-12-17T23:37:37.203Z,93.11
2018-12-17T23:40:05.184Z,92.96
2018-12-17T23:42:32.631Z,92.26
2018-12-17T23:45:00.063Z,92.90
2018-12-17T23:47:27.505Z,92.08
2018-12-17T23:49:54.968Z,92.61
2018-12-17T23:52:22.415Z,92.77
2018-12-17T23:54:49.829Z,92.66
2018-12-17T23:57:17.241Z,92.48
2018-12-17T23:59:44.688Z,92.64
